createdAt,value
2022-09-28T02:12:05.906Z,98.04
2022-09-28T03:08:34.754Z,98.11
2022-09-28T03:37:30.593Z,98.43
2022-09-28T03:53:26.154Z,98.81
2022-09-28T04:28:08.047Z,98.36
2022-09-28T04:42:24.045Z,98.23
2022-09-28T05:54:47.915Z,99.27
2022-09-28T05:57:15.070Z,99.00
2022-09-28T05:59:41.497Z,99.44
2022-09-28T06:02:07.991Z,99.20
2022-09-28T06:04:34.451Z,99.58
2022-09-28T06:07:00.893Z,99.84
2022-09-28T06:09:27.332Z,99.36
2022-09-28T06:11:53.791Z,99.50
2022-09-28T06:14:20.211Z,100.00
2022-09-28T06:16:46.659Z,99.45
2022-09-28T06:19:13.130Z,99.89
2022-09-28T06:21:39.592Z,99.76
2022-09-28T06:24:06.182Z,99.55
2022-09-28T06:26:32.689Z,99.40
2022-09-28T06:29:00.509Z,99.05
2022-09-28T06:31:30.090Z,98.84
2022-09-28T06:33:56.724Z,98.63
2022-09-28T06:36:23.644Z,98.46
2022-09-28T06:38:50.058Z,98.40
2022-09-28T06:41:16.482Z,97.76
2022-09-28T06:43:43.360Z,97.44
2022-09-28T06:46:10.511Z,97.23
2022-09-28T06:48:37.679Z,97.10
2022-09-28T06:51:04.541Z,96.88
2022-09-28T06:53:31.391Z,96.44
2022-09-28T06:55:57.952Z,96.49
2022-09-28T06:58:24.942Z,96.43
2022-09-28T07:00:52.037Z,96.21
2022-09-28T07:03:21.638Z,96.36
2022-09-28T07:05:53.908Z,96.46
2022-09-28T07:08:24.662Z,96.75
2022-09-28T07:10:58.264Z,96.48
2022-09-28T07:16:14.794Z,97.28
2022-09-28T07:18:42.257Z,96.78
2022-09-28T07:21:14.763Z,97.13
2022-09-28T07:23:53.184Z,97.08
2022-09-28T07:26:23.617Z,97.22
2022-09-28T07:28:50.693Z,96.81
2022-09-28T07:31:17.278Z,97.44
2022-09-28T07:33:43.721Z,97.20
2022-09-28T07:36:10.641Z,97.09
2022-09-28T07:38:38.238Z,97.69
2022-09-28T07:41:14.322Z,97.52
2022-09-28T07:43:41.881Z,97.37
2022-09-28T07:46:11.947Z,97.65
2022-09-28T07:48:40.317Z,97.96
2022-09-28T07:51:08.029Z,97.17
2022-09-28T07:53:35.175Z,97.38
2022-09-28T07:56:17.195Z,97.91
2022-09-28T07:58:43.821Z,97.89
2022-09-28T08:01:12.969Z,97.55
2022-09-28T08:03:39.740Z,97.32
2022-09-28T08:06:09.753Z,97.52
2022-09-28T08:08:36.724Z,97.88
2022-09-28T08:11:05.781Z,98.45
2022-09-28T08:13:32.278Z,97.81
2022-09-28T08:16:02.427Z,97.65
2022-09-28T08:18:29.275Z,98.02
2022-09-28T08:21:14.276Z,98.02
2022-09-28T08:23:41.246Z,97.32
2022-09-28T08:26:11.063Z,97.92
2022-09-28T08:28:42.350Z,97.49
2022-09-28T08:31:09.341Z,97.48
2022-09-28T08:33:36.074Z,97.18
2022-09-28T08:36:04.449Z,97.60
2022-09-28T08:38:31.278Z,97.44
2022-09-28T08:41:12.677Z,97.79
2022-09-28T08:44:10.340Z,97.10
2022-09-28T08:46:49.387Z,96.58
2022-09-28T08:49:29.701Z,96.42
2022-09-28T08:52:11.416Z,95.62
2022-09-28T08:54:38.851Z,95.56
2022-09-28T08:57:15.699Z,95.57
2022-09-28T08:59:54.165Z,94.28
2022-09-28T09:02:36.672Z,94.00
2022-09-28T09:05:06.713Z,93.70
2022-09-28T09:07:58.037Z,92.93
2022-09-28T09:10:39.567Z,90.67
2022-09-28T09:13:50.369Z,91.36
2022-09-28T09:16:25.709Z,90.80
2022-09-28T09:19:17.317Z,90.11
2022-09-28T09:21:46.804Z,87.38
2022-09-28T09:24:26.984Z,88.42
2022-09-28T09:39:32.803Z,86.06
2022-09-28T09:46:16.011Z,86.01
2022-09-28T09:52:45.144Z,83.46
2022-09-28T09:56:47.538Z,82.35
2022-09-28T10:36:27.830Z,75.02
2022-09-28T11:41:39.613Z,69.83
2022-09-28T11:44:58.898Z,68.13
2022-09-28T12:04:27.583Z,69.37
2022-09-28T12:33:16.878Z,70.77
2022-09-28T12:51:30.564Z,77.65
2022-09-28T12:54:31.594Z,80.21
2022-09-28T12:57:22.905Z,79.58
2022-09-28T13:04:27.744Z,82.46
2022-09-28T13:11:09.714Z,83.98
2022-09-28T13:13:46.833Z,83.67
2022-09-28T13:19:54.734Z,84.43
2022-09-28T13:22:44.469Z,84.73
2022-09-28T13:25:16.563Z,84.62
2022-09-28T13:27:58.706Z,84.32
2022-09-28T13:30:25.771Z,84.64
2022-09-28T13:32:57.625Z,84.04
2022-09-28T13:35:25.097Z,83.33
2022-09-28T13:38:23.657Z,82.78
2022-09-28T13:41:05.244Z,82.78
2022-09-28T13:43:40.070Z,81.30
2022-09-28T13:54:29.544Z,81.74
2022-09-28T13:57:19.648Z,81.98
2022-09-28T14:00:40.936Z,81.11
2022-09-28T14:03:20.557Z,81.00
2022-09-28T14:13:43.446Z,80.76
2022-09-28T14:16:32.341Z,80.36
2022-09-28T14:27:34.839Z,80.54
2022-09-28T14:38:54.016Z,81.41
2022-09-28T14:46:09.777Z,81.76
2022-09-28T14:56:21.823Z,82.76
2022-09-28T15:02:52.707Z,82.45
2022-09-28T15:13:42.315Z,82.96
2022-09-28T16:07:12.857Z,85.61
2022-09-28T16:21:36.196Z,83.01
2022-09-28T16:39:55.966Z,82.87
2022-09-28T17:01:23.164Z,85.60
2022-09-28T17:03:50.338Z,85.49
2022-09-28T17:06:19.764Z,86.51
2022-09-28T17:08:46.679Z,86.53
2022-09-28T17:11:26.973Z,86.66
2022-09-28T17:13:59.445Z,87.13
2022-09-28T17:16:49.800Z,87.92
2022-09-28T17:19:33.108Z,87.77
2022-09-28T17:26:24.331Z,88.01
2022-09-28T17:28:50.769Z,88.85
2022-09-28T17:31:17.770Z,88.39
2022-09-28T17:33:45.189Z,88.77
2022-09-28T17:36:17.554Z,88.90
2022-09-28T17:38:44.715Z,89.39
2022-09-28T17:45:07.489Z,89.32
2022-09-28T17:47:34.505Z,89.53
2022-09-28T17:50:01.075Z,89.47
2022-09-28T17:52:38.081Z,89.87
2022-09-28T17:55:30.390Z,89.94
2022-09-28T17:57:58.113Z,89.78
2022-09-28T18:13:21.738Z,90.47
2022-09-28T18:15:51.658Z,90.83
2022-09-28T18:18:18.635Z,90.67
2022-09-28T18:20:45.162Z,91.01
2022-09-28T18:23:11.696Z,91.14
2022-09-28T18:25:43.061Z,91.05
2022-09-28T18:28:10.675Z,91.24
2022-09-28T18:30:42.827Z,90.93
2022-09-28T18:33:10.420Z,91.83
2022-09-28T18:35:37.022Z,92.18
2022-09-28T18:38:05.294Z,92.29
2022-09-28T18:41:11.388Z,92.31
2022-09-28T18:48:05.774Z,91.86
2022-09-28T18:50:32.357Z,92.17
2022-09-28T18:53:11.394Z,92.73
2022-09-28T18:55:42.505Z,92.58
2022-09-28T18:58:10.590Z,92.90
2022-09-28T19:00:39.311Z,93.16
2022-09-28T19:03:06.915Z,93.23
2022-09-28T19:05:35.023Z,93.15
2022-09-28T19:08:01.802Z,93.03
2022-09-28T19:10:28.660Z,93.43
2022-09-28T19:12:55.115Z,93.09
2022-09-28T19:15:22.745Z,92.47
2022-09-28T19:17:50.074Z,92.70
2022-09-28T19:20:17.145Z,92.72
2022-09-28T19:22:44.208Z,92.78
2022-09-28T19:25:11.080Z,93.19
2022-09-28T19:27:37.617Z,93.29
2022-09-28T19:30:04.508Z,93.48
2022-09-28T19:32:31.067Z,93.42
2022-09-28T19:34:58.527Z,93.37
2022-09-28T19:37:25.135Z,93.41
2022-09-28T19:39:51.656Z,93.20
2022-09-28T19:42:18.145Z,93.12
2022-09-28T19:44:44.849Z,93.33
2022-09-28T19:47:13.075Z,93.06
2022-09-28T19:49:40.656Z,92.95
2022-09-28T19:52:15.605Z,92.77
2022-09-28T19:54:44.419Z,93.03
2022-09-28T19:57:12.582Z,93.44
2022-09-28T19:59:39.073Z,93.52
2022-09-28T20:02:10.160Z,92.96
2022-09-28T20:04:36.759Z,93.37
2022-09-28T20:07:04.263Z,93.58
2022-09-28T20:09:31.920Z,93.52
2022-09-28T20:11:58.394Z,93.96
2022-09-28T20:14:28.166Z,93.68
2022-09-28T20:16:58.458Z,93.85
2022-09-28T20:19:24.961Z,93.87
2022-09-28T20:21:51.450Z,93.97
2022-09-28T20:24:18.023Z,93.85
2022-09-28T20:26:45.836Z,94.09
2022-09-28T20:29:12.838Z,93.77
2022-09-28T20:31:39.778Z,94.13
2022-09-28T20:34:07.026Z,94.24
2022-09-28T20:36:33.898Z,94.39
2022-09-28T20:39:04.270Z,93.99
2022-09-28T20:41:35.663Z,94.23
2022-09-28T20:44:05.599Z,94.75
2022-09-28T20:46:33.524Z,94.26
2022-09-28T20:49:00.245Z,94.52
2022-09-28T20:51:26.916Z,95.20
2022-09-28T20:53:55.385Z,95.03
2022-09-28T20:56:24.570Z,95.06
2022-09-28T20:58:51.953Z,94.89
2022-09-28T21:01:21.329Z,94.63
2022-09-28T21:03:50.300Z,94.82
2022-09-28T21:06:18.253Z,94.57
2022-09-28T21:08:45.890Z,94.47
2022-09-28T21:11:13.710Z,94.20
2022-09-28T21:13:42.833Z,94.80
2022-09-28T21:16:15.855Z,94.47
2022-09-28T21:18:42.591Z,94.68
2022-09-28T21:21:14.751Z,94.70
2022-09-28T21:23:42.604Z,94.67
2022-09-28T21:26:15.708Z,94.78
2022-09-28T21:28:44.740Z,94.06
2022-09-28T21:31:12.711Z,94.11
2022-09-28T21:33:39.417Z,94.57
2022-09-28T21:36:07.741Z,94.53
2022-09-28T21:38:35.022Z,94.72
2022-09-28T21:41:01.811Z,94.22
2022-09-28T21:43:29.832Z,94.60
2022-09-28T21:45:57.596Z,94.82
2022-09-28T21:48:27.529Z,94.57
2022-09-28T21:51:03.892Z,94.35
2022-09-28T21:53:35.361Z,94.07
2022-09-28T21:56:03.766Z,94.03
2022-09-28T21:58:33.533Z,94.14
2022-09-28T22:01:08.396Z,94.34
2022-09-28T22:03:36.395Z,94.82
2022-09-28T22:06:04.339Z,94.80
2022-09-28T22:08:30.783Z,94.28
2022-09-28T22:11:04.623Z,94.85
2022-09-28T22:13:36.916Z,94.43
2022-09-28T22:16:03.633Z,94.69
2022-09-28T22:18:31.399Z,94.78
2022-09-28T22:21:13.705Z,94.32
2022-09-28T22:23:40.330Z,94.43
2022-09-28T22:26:18.890Z,94.74
2022-09-28T22:28:47.973Z,94.52
2022-09-28T22:31:15.854Z,94.68
2022-09-28T22:33:42.535Z,94.91
2022-09-28T22:36:16.836Z,94.87
2022-09-28T22:38:53.698Z,94.97
2022-09-28T22:41:23.254Z,95.32
2022-09-28T22:43:51.647Z,94.89
2022-09-28T22:46:21.136Z,94.46
2022-09-28T22:48:49.114Z,94.26
2022-09-28T22:51:15.998Z,94.76
2022-09-28T22:53:42.933Z,94.76
2022-09-28T22:56:12.600Z,94.99
2022-09-28T22:58:42.641Z,94.75
2022-09-28T23:01:21.512Z,94.49
2022-09-28T23:03:48.484Z,94.68
2022-09-28T23:06:17.363Z,94.67
2022-09-28T23:08:45.253Z,94.99
2022-09-28T23:11:11.844Z,94.46
2022-09-28T23:13:38.374Z,94.54
2022-09-28T23:16:07.040Z,94.91
2022-09-28T23:18:35.828Z,94.53
2022-09-28T23:21:05.197Z,94.36
2022-09-28T23:23:32.454Z,94.83
2022-09-28T23:25:59.415Z,95.04
2022-09-28T23:28:27.043Z,94.18
2022-09-28T23:30:54.342Z,94.70
2022-09-28T23:33:22.206Z,94.71
2022-09-28T23:35:49.434Z,94.67
2022-09-28T23:38:18.190Z,94.17
2022-09-28T23:40:47.882Z,94.89
2022-09-28T23:43:14.787Z,94.77
2022-09-28T23:45:45.501Z,94.21
2022-09-28T23:48:14.936Z,94.79
2022-09-28T23:50:43.283Z,94.82
2022-09-28T23:53:11.797Z,94.55
2022-09-28T23:55:38.239Z,94.79
2022-09-28T23:58:04.688Z,94.52
